This is the latest recevied weather packets stored in our database for station/object N2XP-3. If no packets are shown the sender has not sent any weather packets the latest 10 day(s).
| Time | Temp. | Humidity | Pressure | Rain* | Wind** | Luminosity | Snow |
|---|---|---|---|---|---|---|---|
| 1777642439 | 16.11° C | 50% | 1010.9 hPa | 0 mm | 1.79 m/s, 45° | - | - |
| 1777642135 | 15.56° C | 53% | 1011 hPa | 0 mm | 1.79 m/s, 288° | - | - |
| 1777641528 | 15° C | 56% | 1010.9 hPa | 0 mm | 2.24 m/s, 242° | - | - |
| 1777641223 | 16.11° C | 54% | 1011 hPa | 0 mm | 3.58 m/s, 44° | - | - |
| 1777640320 | 16.67° C | 58% | 1011 hPa | 0 mm | 0.89 m/s, 346° | - | - |
| 1777639721 | 16.11° C | 58% | 1011.1 hPa | 0 mm | 1.79 m/s, 340° | - | - |
| 1777639114 | 17.78° C | 52% | 1011.4 hPa | 0 mm | 2.68 m/s, 34° | - | - |
| 1777638511 | 17.78° C | 59% | 1011.3 hPa | 0 mm | 0 m/s | - | - |
| 1777638212 | 17.22° C | 59% | 1011.2 hPa | 0 mm | 2.24 m/s, 297° | - | - |
| 1777637912 | 16.67° C | 66% | 1011.1 hPa | 0 mm | 0.89 m/s, 219° | - | - |
| 1777637305 | 13.33° C | 80% | 1011.3 hPa | 0 mm | 1.79 m/s, 176° | - | - |
| 1777637006 | 12.22° C | 84% | 1011.2 hPa | 0 mm | 1.34 m/s, 76° | - | - |
| 1777636702 | 12.78° C | 83% | 1011.2 hPa | 0 mm | 0 m/s | - | - |
| 1777636400 | 13.33° C | 85% | 1011.2 hPa | 0 mm | 0 m/s | - | - |
| 1777635491 | 12.78° C | 91% | 1011.1 hPa | 0 mm | 0 m/s | - | - |
| 1777635219 | 13.33° C | 90% | 1011.1 hPa | 0 mm | 0 m/s | - | - |
| 1777635187 | 13.33° C | 90% | 1011.1 hPa | 0 mm | 0 m/s | - | - |
| 1777634884 | 13.33° C | 91% | 1011.1 hPa | 0 mm | 0 m/s | - | - |
| 1777634580 | 13.33° C | 94% | 1011.1 hPa | 0 mm | 0 m/s | - | - |
| 1777634277 | 11.67° C | 99% | 1011.1 hPa | 0 mm | 0 m/s | - | - |
| 1777633974 | 10° C | 100% | 1011.1 hPa | 0 mm | 0 m/s | - | - |
| 1777633674 | 8.33° C | 100% | 1011 hPa | 0 mm | 0 m/s | - | - |
| 1777632768 | 4.44° C | 100% | 1011.1 hPa | 0 mm | 0 m/s | - | - |
| 1777632468 | 3.89° C | 100% | 1011.1 hPa | 0 mm | 0 m/s | - | - |
| 1777632163 | 3.33° C | 100% | 1011 hPa | 0 mm | 0 m/s | - | - |
* Rain latest hour (hover to see other rain measurements)
** Current wind speed in m/s (hover to see current wind gust speed)